SANE/SDE METAR and TAF weather

Enter ICAO airport designator
Station Type Date Time Source
SANE METAR 2020/09/01 12:25 UTC NOAA

SANE 011225Z 18003KT 8000 -DZ BKN020 OVC025 08/05 Q1029


Station Type Date Time Source
SANE Decoded METAR 2020/09/01 12:25 UTC NOAA

Santiago Del Estero Aero., Argentina (SANE) 27-46S 064-18W 199M
Sep 01, 2020 - 08:25 AM EDT / 2020.09.01 1225 UTC
Wind: from the S (180 degrees) at 3 MPH (3 KT):0
Visibility: 4 mile(s):0
Sky conditions: overcast
Weather: light drizzle
Temperature: 46 F (8 C)
Dew Point: 41 F (5 C)
Relative Humidity: 81%
Pressure (altimeter): 30.39 in. Hg (1029 hPa)
ob: SANE 011225Z 18003KT 8000 -DZ BKN020 OVC025 08/05 Q1029
cycle: 12

Station Type Date Time Source
SANE TAF 2020/07/27 06:09 UTC NOAA

TAF TAF SANE 270500Z 2706/2806 VRB03KT CAVOK TX21/2718Z TN02/2710Z
BECMG 2708/2710 16010KT
BECMG 2715/2717 16015G25KT

Example: see airport list